createdAt,value
2022-08-17T00:00:43.569Z,96276.16
2022-08-17T00:03:14.590Z,96283.66
2022-08-17T00:05:52.271Z,96281.13
2022-08-17T00:08:22.484Z,96278.13
2022-08-17T00:10:50.076Z,96276.88
2022-08-17T00:13:29.635Z,96279.88
2022-08-17T00:16:02.394Z,96283.66
2022-08-17T00:19:06.565Z,96280.91
2022-08-17T00:21:25.175Z,96261.38
2022-08-17T00:23:54.497Z,96276.91
2022-08-17T00:26:43.999Z,96276.66
2022-08-17T00:29:09.275Z,96295.97
2022-08-17T00:31:37.279Z,96303.75
2022-08-17T00:34:08.803Z,96315.75
2022-08-17T00:36:38.769Z,96309.50
2022-08-17T00:39:05.617Z,96315.75
2022-08-17T00:41:40.772Z,96305.00
2022-08-17T00:44:09.769Z,96299.22
2022-08-17T00:46:42.131Z,96303.97
2022-08-17T00:49:11.914Z,96317.50
2022-08-17T00:51:44.273Z,96320.75
2022-08-17T00:54:33.515Z,96317.72
2022-08-17T00:57:17.090Z,96306.44
2022-08-17T00:59:47.218Z,96296.16
2022-08-17T01:02:29.985Z,96291.44
2022-08-17T01:05:01.411Z,96273.41
2022-08-17T01:07:30.902Z,96303.00
2022-08-17T01:09:58.683Z,96312.22
2022-08-17T01:12:25.277Z,96285.63
2022-08-17T01:14:51.894Z,96284.97
2022-08-17T01:17:20.801Z,96285.94
2022-08-17T01:19:47.375Z,96294.34
2022-08-17T01:22:20.061Z,96295.88
2022-08-17T01:24:59.065Z,96283.53
2022-08-17T01:27:26.740Z,96299.06
2022-08-17T01:29:58.679Z,96304.53
2022-08-17T01:32:30.468Z,96303.28
2022-08-17T01:34:58.306Z,96312.81
2022-08-17T01:37:35.709Z,96340.72
2022-08-17T01:40:16.054Z,96348.56
2022-08-17T01:43:01.449Z,96342.56
2022-08-17T01:45:33.690Z,96336.59
2022-08-17T01:48:03.104Z,96344.38
2022-08-17T01:50:34.884Z,96339.41
2022-08-17T01:53:11.509Z,96345.16
2022-08-17T01:55:51.425Z,96344.16
2022-08-17T01:58:19.241Z,96349.44
2022-08-17T02:01:00.055Z,96355.72
2022-08-17T02:03:31.263Z,96361.00
2022-08-17T02:05:58.121Z,96359.00
2022-08-17T02:08:38.984Z,96368.78
2022-08-17T02:11:15.810Z,96365.00
2022-08-17T02:13:48.937Z,96358.69
2022-08-17T02:16:27.105Z,96363.72
2022-08-17T02:19:06.233Z,96368.94
2022-08-17T02:21:32.890Z,96381.00
2022-08-17T02:24:01.825Z,96398.09
2022-08-17T02:26:28.415Z,96405.66
2022-08-17T02:28:57.483Z,96403.66
2022-08-17T02:31:24.046Z,96405.16
2022-08-17T02:33:56.664Z,96407.19
2022-08-17T02:36:35.587Z,96411.97
2022-08-17T02:39:07.450Z,96414.50
2022-08-17T02:41:34.073Z,96413.75
2022-08-17T02:44:00.748Z,96404.44
2022-08-17T02:46:30.498Z,96400.19
2022-08-17T02:48:57.515Z,96397.66
2022-08-17T02:51:24.387Z,96399.16
2022-08-17T02:53:53.215Z,96390.91
2022-08-17T02:56:42.249Z,96407.00
2022-08-17T02:59:11.504Z,96404.47
2022-08-17T03:01:38.550Z,96408.50
2022-08-17T03:04:05.203Z,96387.94
2022-08-17T03:06:34.226Z,96400.72
2022-08-17T03:09:04.084Z,96405.00
2022-08-17T03:11:33.308Z,96409.53
2022-08-17T03:14:00.274Z,96412.78
2022-08-17T03:16:26.803Z,96402.75
2022-08-17T03:18:54.770Z,96403.78
2022-08-17T03:21:21.711Z,96420.09
2022-08-17T03:23:48.436Z,96414.34
2022-08-17T03:26:21.247Z,96405.81
2022-08-17T03:28:47.838Z,96413.09
2022-08-17T03:31:18.386Z,96413.59
2022-08-17T03:33:45.128Z,96413.09
2022-08-17T03:36:17.520Z,96409.06
2022-08-17T03:38:44.048Z,96409.06
2022-08-17T03:41:13.578Z,96407.31
2022-08-17T03:43:40.299Z,96412.84
2022-08-17T03:46:33.961Z,96409.09
2022-08-17T03:49:24.045Z,96407.84
2022-08-17T03:52:09.510Z,96410.59
2022-08-17T03:54:54.601Z,96409.31
2022-08-17T03:57:21.359Z,96420.34
2022-08-17T03:59:48.118Z,96428.91
2022-08-17T04:02:20.951Z,96441.19
2022-08-17T04:04:51.092Z,96445.44
2022-08-17T04:07:19.758Z,96457.22
2022-08-17T04:09:46.492Z,96459.25
2022-08-17T04:12:21.251Z,96469.78
2022-08-17T04:14:53.562Z,96461.75
2022-08-17T04:17:32.078Z,96458.22
2022-08-17T04:19:58.635Z,96462.97
2022-08-17T04:22:30.997Z,96447.94
2022-08-17T04:25:08.285Z,96461.97
2022-08-17T04:27:37.241Z,96452.41
2022-08-17T04:30:07.428Z,96450.66
2022-08-17T04:33:10.039Z,96452.41
2022-08-17T04:35:42.793Z,96473.44
2022-08-17T04:38:12.712Z,96462.66
2022-08-17T04:40:58.177Z,96460.16
2022-08-17T04:43:29.760Z,96464.41
2022-08-17T04:46:00.237Z,96463.94
2022-08-17T04:48:36.353Z,96457.66
2022-08-17T04:51:12.349Z,96455.56
2022-08-17T04:53:54.037Z,96452.72
2022-08-17T04:56:23.248Z,96458.81
2022-08-17T04:58:52.732Z,96457.25
2022-08-17T05:01:24.116Z,96468.00
2022-08-17T05:03:56.309Z,96462.78
2022-08-17T05:06:26.520Z,96476.81
2022-08-17T05:08:55.776Z,96468.53
2022-08-17T05:11:26.203Z,96476.34
2022-08-17T05:13:54.785Z,96467.59
2022-08-17T05:16:24.906Z,96455.25
2022-08-17T05:18:52.514Z,96460.44
2022-08-17T05:21:20.854Z,96460.16
2022-08-17T05:23:53.258Z,96471.72
2022-08-17T05:26:26.886Z,96474.75
2022-08-17T05:28:59.489Z,96477.34
2022-08-17T05:31:31.352Z,96472.06
2022-08-17T05:34:03.511Z,96470.59
2022-08-17T05:36:42.780Z,96470.84
2022-08-17T05:39:17.234Z,96485.59
2022-08-17T05:41:46.614Z,96491.28
2022-08-17T05:44:15.328Z,96482.53
2022-08-17T05:46:48.116Z,96481.38
2022-08-17T05:49:20.032Z,96483.78
2022-08-17T05:52:06.035Z,96483.28
2022-08-17T05:54:41.378Z,96472.59
2022-08-17T05:57:17.774Z,96480.94
2022-08-17T06:00:14.547Z,96477.97
2022-08-17T06:02:59.746Z,96465.94
2022-08-17T06:05:29.533Z,96457.66
2022-08-17T06:08:04.968Z,96452.66
2022-08-17T06:10:53.389Z,96457.94
2022-08-17T06:13:45.000Z,96457.16
2022-08-17T06:16:33.859Z,96453.44
2022-08-17T06:19:18.439Z,96459.50
2022-08-17T06:21:50.579Z,96468.03
2022-08-17T06:24:29.358Z,96474.56
2022-08-17T06:27:06.726Z,96467.00
2022-08-17T06:29:44.082Z,96462.91
2022-08-17T06:32:12.981Z,96451.25
2022-08-17T06:34:43.722Z,96454.22
2022-08-17T06:37:19.230Z,96451.66
2022-08-17T06:40:04.406Z,96443.16
2022-08-17T06:43:02.513Z,96455.19
2022-08-17T06:45:43.498Z,96447.63
2022-08-17T06:48:24.906Z,96443.91
2022-08-17T06:51:00.804Z,96450.28
2022-08-17T06:53:51.686Z,96456.78
2022-08-17T06:56:54.092Z,96452.47
2022-08-17T06:59:21.737Z,96437.88
2022-08-17T07:01:52.150Z,96440.66
2022-08-17T07:04:30.137Z,96440.00
2022-08-17T07:07:26.823Z,96427.19
2022-08-17T07:09:59.023Z,96418.53
2022-08-17T07:12:31.469Z,96425.34
2022-08-17T07:15:04.499Z,96427.94
2022-08-17T07:17:47.523Z,96420.25
2022-08-17T07:20:20.618Z,96434.53
2022-08-17T07:23:00.029Z,96436.31
2022-08-17T07:25:27.563Z,96437.13
2022-08-17T07:28:00.308Z,96433.75
2022-08-17T07:30:30.701Z,96430.66
2022-08-17T07:33:20.132Z,96420.19
2022-08-17T07:35:48.513Z,96415.81
2022-08-17T07:38:25.485Z,96433.03
2022-08-17T07:41:02.649Z,96442.72
2022-08-17T07:43:38.093Z,96428.91
2022-08-17T07:46:38.508Z,96421.03
2022-08-17T07:49:07.666Z,96421.25
2022-08-17T07:51:39.603Z,96432.53
2022-08-17T07:54:15.250Z,96427.94
2022-08-17T07:56:47.783Z,96428.72
2022-08-17T07:59:38.820Z,96420.63
2022-08-17T08:02:17.146Z,96420.00
2022-08-17T08:05:10.119Z,96423.41
2022-08-17T08:07:51.879Z,96420.91
2022-08-17T08:10:27.928Z,96412.13
2022-08-17T08:13:05.777Z,96425.09
2022-08-17T08:15:53.582Z,96419.63
2022-08-17T08:18:38.587Z,96428.69
2022-08-17T08:21:29.176Z,96424.19
2022-08-17T08:24:30.169Z,96427.50
2022-08-17T08:27:27.240Z,96429.53
2022-08-17T08:30:15.869Z,96442.22
2022-08-17T08:33:07.595Z,96445.16
2022-08-17T08:35:46.177Z,96461.78
2022-08-17T08:38:23.499Z,96464.63
2022-08-17T08:41:08.503Z,96466.19
2022-08-17T08:44:06.007Z,96469.56
2022-08-17T08:46:47.102Z,96469.22
2022-08-17T08:50:02.750Z,96459.25
2022-08-17T08:52:44.347Z,96469.97
2022-08-17T08:55:38.699Z,96477.38
2022-08-17T08:58:31.759Z,96479.72
2022-08-17T09:01:09.182Z,96487.13
2022-08-17T09:04:10.939Z,96480.56
2022-08-17T09:07:27.950Z,96494.81
2022-08-17T09:10:09.030Z,96504.53
2022-08-17T09:13:17.670Z,96516.22
2022-08-17T09:15:58.959Z,96516.22
2022-08-17T09:19:00.039Z,96522.16
2022-08-17T09:21:35.061Z,96520.38
2022-08-17T09:24:14.137Z,96508.41
2022-08-17T09:27:04.676Z,96508.97
2022-08-17T09:29:36.436Z,96510.66
2022-08-17T09:32:35.252Z,96502.84
2022-08-17T09:35:10.472Z,96506.06
2022-08-17T09:37:39.989Z,96499.31
2022-08-17T09:40:25.763Z,96493.16
2022-08-17T09:43:17.195Z,96508.81
2022-08-17T09:45:52.000Z,96498.03
2022-08-17T09:48:25.113Z,96494.00
2022-08-17T09:51:05.942Z,96490.84
2022-08-17T09:53:40.776Z,96472.94
2022-08-17T09:56:07.411Z,96477.53
2022-08-17T09:58:56.445Z,96473.81
2022-08-17T10:01:31.531Z,96470.38
2022-08-17T10:04:12.423Z,96462.19
2022-08-17T10:06:50.423Z,96462.72
2022-08-17T10:09:42.199Z,96452.94
2022-08-17T10:12:35.616Z,96449.41
2022-08-17T10:15:17.561Z,96447.75
2022-08-17T10:17:59.421Z,96450.09
2022-08-17T10:20:31.198Z,96450.50
2022-08-17T10:23:32.252Z,96451.41
2022-08-17T10:26:15.007Z,96460.91
2022-08-17T10:29:01.701Z,96457.91
2022-08-17T10:31:45.599Z,96456.50
2022-08-17T10:34:20.579Z,96471.09
2022-08-17T10:37:28.453Z,96474.03
2022-08-17T10:40:22.332Z,96474.13
2022-08-17T10:42:56.917Z,96468.31
2022-08-17T10:45:34.766Z,96472.97
2022-08-17T10:48:07.689Z,96469.28
2022-08-17T10:50:55.419Z,96468.63
2022-08-17T10:53:46.053Z,96472.41
2022-08-17T10:56:12.565Z,96473.38
2022-08-17T10:58:57.460Z,96482.75
2022-08-17T11:01:33.156Z,96466.25
2022-08-17T11:04:09.952Z,96457.53
2022-08-17T11:06:41.922Z,96460.16
2022-08-17T11:09:27.543Z,96464.16
2022-08-17T11:12:25.586Z,96456.84
2022-08-17T11:15:04.106Z,96455.34
2022-08-17T11:17:35.268Z,96445.28
2022-08-17T11:20:18.988Z,96443.63
2022-08-17T11:23:10.176Z,96446.16
2022-08-17T11:25:39.598Z,96435.19
2022-08-17T11:28:19.413Z,96431.50
2022-08-17T11:30:51.012Z,96429.06
2022-08-17T11:33:29.791Z,96427.38
2022-08-17T11:36:32.093Z,96423.06
2022-08-17T11:39:14.303Z,96424.78
2022-08-17T11:41:55.173Z,96419.31
2022-08-17T11:44:37.799Z,96422.84
2022-08-17T11:47:29.272Z,96416.09
2022-08-17T11:50:17.083Z,96396.88
2022-08-17T11:52:47.752Z,96398.13
2022-08-17T11:55:41.761Z,96414.50
2022-08-17T11:58:29.533Z,96400.53
2022-08-17T12:01:06.645Z,96396.38
2022-08-17T12:03:36.950Z,96383.06
2022-08-17T12:06:30.642Z,96386.75
2022-08-17T12:09:07.987Z,96401.06
2022-08-17T12:12:18.094Z,96382.50
2022-08-17T12:15:11.035Z,96390.47
2022-08-17T12:17:40.167Z,96381.88
2022-08-17T12:20:29.812Z,96379.66
2022-08-17T12:23:23.376Z,96385.34
2022-08-17T12:25:57.131Z,96376.44
2022-08-17T12:28:33.486Z,96376.81
2022-08-17T12:31:07.871Z,96378.03
2022-08-17T12:33:36.781Z,96375.03
2022-08-17T12:36:08.533Z,96377.56
2022-08-17T12:38:39.870Z,96361.63
2022-08-17T12:41:27.197Z,96360.69
2022-08-17T12:44:02.811Z,96363.31
2022-08-17T12:46:46.762Z,96355.34
2022-08-17T12:49:15.211Z,96362.44
2022-08-17T12:51:46.768Z,96357.66
2022-08-17T12:54:41.094Z,96359.97
2022-08-17T12:57:33.390Z,96347.97
2022-08-17T13:00:17.552Z,96339.31
2022-08-17T13:02:52.089Z,96333.25
2022-08-17T13:05:25.974Z,96351.28
2022-08-17T13:07:53.307Z,96349.00
2022-08-17T13:10:28.641Z,96335.03
2022-08-17T13:13:07.555Z,96320.63
2022-08-17T13:15:51.043Z,96319.19
2022-08-17T13:18:29.832Z,96325.03
2022-08-17T13:20:59.141Z,96320.84
2022-08-17T13:23:29.199Z,96311.28
2022-08-17T13:26:15.045Z,96299.63
2022-08-17T13:28:51.719Z,96297.91
2022-08-17T13:31:30.353Z,96289.50
2022-08-17T13:34:18.708Z,96282.81
2022-08-17T13:36:50.663Z,96271.88
2022-08-17T13:39:22.612Z,96269.09
2022-08-17T13:41:54.017Z,96266.09
2022-08-17T13:44:39.342Z,96252.59
2022-08-17T13:47:17.098Z,96263.13
2022-08-17T13:49:48.761Z,96252.97
2022-08-17T13:52:52.250Z,96259.72
2022-08-17T13:55:22.329Z,96250.66
2022-08-17T13:58:06.552Z,96255.81
2022-08-17T14:00:39.489Z,96243.28
2022-08-17T14:03:11.132Z,96247.28
2022-08-17T14:05:39.455Z,96238.91
2022-08-17T14:08:06.611Z,96227.03
2022-08-17T14:10:36.366Z,96223.09
2022-08-17T14:13:03.652Z,96226.16
2022-08-17T14:15:55.173Z,96208.13
2022-08-17T14:18:18.996Z,96222.84
2022-08-17T14:21:05.667Z,96218.63
2022-08-17T14:23:32.948Z,96213.31
2022-08-17T14:26:02.033Z,96225.31
2022-08-17T14:28:28.727Z,96217.31
2022-08-17T14:30:55.542Z,96219.00
2022-08-17T14:33:24.841Z,96233.56
2022-08-17T14:35:53.543Z,96225.28
2022-08-17T14:38:23.429Z,96233.88
2022-08-17T14:40:52.759Z,96243.34
2022-08-17T14:43:20.423Z,96249.34
2022-08-17T14:45:47.191Z,96250.03
2022-08-17T14:48:13.757Z,96240.31
2022-08-17T14:50:43.777Z,96241.38
2022-08-17T14:53:13.545Z,96247.06
2022-08-17T14:55:40.534Z,96252.50
2022-08-17T14:58:08.836Z,96253.41
2022-08-17T15:00:36.025Z,96250.09
2022-08-17T15:03:03.143Z,96265.63
2022-08-17T15:05:37.471Z,96266.97
2022-08-17T15:08:09.644Z,96283.25
2022-08-17T15:10:36.529Z,96272.47
2022-08-17T15:13:12.968Z,96279.75
2022-08-17T15:15:39.508Z,96264.81
2022-08-17T15:18:07.945Z,96274.69
2022-08-17T15:20:35.649Z,96284.59
2022-08-17T15:23:02.344Z,96294.31
2022-08-17T15:25:31.951Z,96291.69
2022-08-17T15:28:01.930Z,96279.72
2022-08-17T15:30:30.336Z,96272.94
2022-08-17T15:32:58.810Z,96283.38
2022-08-17T15:35:29.141Z,96276.63
2022-08-17T15:38:10.695Z,96279.09
2022-08-17T15:40:43.434Z,96273.53
2022-08-17T15:43:23.327Z,96270.19
2022-08-17T15:46:06.128Z,96264.88
2022-08-17T15:48:41.804Z,96274.94
2022-08-17T15:51:26.006Z,96277.84
2022-08-17T15:54:18.881Z,96268.53
2022-08-17T15:56:51.104Z,96265.44
2022-08-17T15:59:20.220Z,96255.66
2022-08-17T16:03:14.042Z,96269.31
2022-08-17T16:04:39.150Z,96286.13
2022-08-17T16:07:14.570Z,96301.69
2022-08-17T16:09:44.232Z,96273.53
2022-08-17T16:12:21.650Z,96278.84
2022-08-17T16:14:53.318Z,96278.34
2022-08-17T16:17:40.177Z,96259.66
2022-08-17T16:20:19.552Z,96241.94
2022-08-17T16:22:54.145Z,96236.47
2022-08-17T16:25:51.993Z,96259.94
2022-08-17T16:28:20.649Z,96254.56
2022-08-17T16:30:49.649Z,96269.88
2022-08-17T16:33:16.976Z,96277.03
2022-08-17T16:35:43.920Z,96271.84
2022-08-17T16:38:12.764Z,96250.03
2022-08-17T16:40:42.585Z,96255.97
2022-08-17T16:43:12.205Z,96248.41
2022-08-17T16:45:42.265Z,96238.50
2022-08-17T16:48:09.679Z,96248.63
2022-08-17T16:50:38.878Z,96261.19
2022-08-17T16:53:24.123Z,96256.47
2022-08-17T16:55:53.586Z,96245.75
2022-08-17T16:58:20.398Z,96252.00
2022-08-17T17:00:51.815Z,96245.16
2022-08-17T17:03:24.871Z,96247.25
2022-08-17T17:06:18.739Z,96254.47
2022-08-17T17:09:03.276Z,96270.38
2022-08-17T17:11:53.353Z,96261.84
2022-08-17T17:14:44.770Z,96276.44
2022-08-17T17:17:21.128Z,96286.50
2022-08-17T17:20:15.494Z,96278.84
2022-08-17T17:23:07.673Z,96285.81
2022-08-17T17:25:55.182Z,96290.09
2022-08-17T17:28:39.075Z,96282.69
2022-08-17T17:31:23.840Z,96269.09
2022-08-17T17:33:57.478Z,96284.19
2022-08-17T17:36:33.377Z,96288.19
2022-08-17T17:39:18.083Z,96291.47
2022-08-17T17:41:56.205Z,96268.47
2022-08-17T17:44:28.760Z,96265.72
2022-08-17T17:46:58.378Z,96273.75
2022-08-17T17:49:37.061Z,96280.88
2022-08-17T17:52:20.288Z,96289.97
2022-08-17T17:54:52.839Z,96300.03
2022-08-17T17:57:50.100Z,96306.34
2022-08-17T18:00:37.231Z,96314.66
2022-08-17T18:03:25.358Z,96317.41
2022-08-17T18:05:54.915Z,96326.53
2022-08-17T18:08:34.833Z,96334.56
2022-08-17T18:11:12.411Z,96331.78
2022-08-17T18:13:56.860Z,96324.97
2022-08-17T18:16:32.007Z,96315.63
2022-08-17T18:19:03.225Z,96340.50
2022-08-17T18:21:39.573Z,96344.00
2022-08-17T18:24:08.686Z,96354.81
2022-08-17T18:26:38.046Z,96376.22
2022-08-17T18:29:24.277Z,96389.84
2022-08-17T18:32:12.628Z,96411.13
2022-08-17T18:34:48.516Z,96418.31
2022-08-17T18:37:31.851Z,96423.56
2022-08-17T18:40:11.331Z,96418.97
2022-08-17T18:42:38.739Z,96435.41
2022-08-17T18:45:05.804Z,96451.50
2022-08-17T18:47:35.123Z,96446.53
2022-08-17T18:50:22.554Z,96463.75
2022-08-17T18:52:51.527Z,96464.38
2022-08-17T18:55:23.071Z,96456.97
2022-08-17T18:57:59.094Z,96462.81
2022-08-17T19:00:41.868Z,96478.22
2022-08-17T19:03:20.432Z,96493.31
2022-08-17T19:08:28.582Z,96525.03
2022-08-17T19:11:06.519Z,96536.53
2022-08-17T19:13:46.147Z,96556.50
2022-08-17T19:16:31.878Z,96573.31
2022-08-17T19:19:12.197Z,96597.09
2022-08-17T19:21:49.323Z,96617.47
2022-08-17T19:24:23.586Z,96618.34
2022-08-17T19:27:06.848Z,96629.53
2022-08-17T19:30:00.793Z,96632.00
2022-08-17T19:32:34.752Z,96623.41
2022-08-17T19:35:05.310Z,96615.66
2022-08-17T19:38:33.589Z,96610.91
2022-08-17T19:41:26.409Z,96623.66
2022-08-17T19:44:12.359Z,96616.53
2022-08-17T19:47:00.909Z,96630.66
2022-08-17T19:49:56.924Z,96649.13
2022-08-17T19:52:41.772Z,96695.91
2022-08-17T19:55:33.294Z,96716.31
2022-08-17T19:58:41.660Z,96746.59
2022-08-17T20:01:19.587Z,96787.81
2022-08-17T20:04:14.410Z,96815.91
2022-08-17T20:06:45.659Z,96822.91
2022-08-17T20:09:17.976Z,96830.13
2022-08-17T20:11:54.866Z,96818.66
2022-08-17T20:14:25.465Z,96814.66
2022-08-17T20:16:59.297Z,96804.25
2022-08-17T20:19:37.613Z,96804.72
2022-08-17T20:22:13.404Z,96804.91
2022-08-17T20:24:50.541Z,96818.47
2022-08-17T20:27:31.789Z,96820.81
2022-08-17T20:30:13.212Z,96830.31
2022-08-17T20:32:55.525Z,96822.63
2022-08-17T20:35:27.066Z,96828.13
2022-08-17T20:37:56.374Z,96836.38
2022-08-17T20:40:36.198Z,96841.41
2022-08-17T20:43:40.531Z,96839.13
2022-08-17T20:46:48.362Z,96836.47
2022-08-17T20:49:17.252Z,96823.75
2022-08-17T20:52:07.888Z,96824.97
2022-08-17T20:54:59.941Z,96810.75
2022-08-17T20:57:32.637Z,96812.50
2022-08-17T21:00:16.504Z,96819.69
2022-08-17T21:02:51.303Z,96819.47
2022-08-17T21:06:00.117Z,96814.19
2022-08-17T21:08:36.031Z,96813.31
2022-08-17T21:11:56.662Z,96815.97
2022-08-17T21:14:17.540Z,96818.06
2022-08-17T21:17:06.866Z,96820.81
2022-08-17T21:20:08.114Z,96828.59
2022-08-17T21:22:52.579Z,96827.06
2022-08-17T21:25:50.515Z,96829.06
2022-08-17T21:29:31.046Z,96838.34
2022-08-17T21:32:01.582Z,96843.69
2022-08-17T21:34:37.313Z,96848.72
2022-08-17T21:37:25.034Z,96839.69
2022-08-17T21:39:54.630Z,96826.03
2022-08-17T21:42:55.649Z,96835.03
2022-08-17T21:45:38.863Z,96830.47
2022-08-17T21:48:16.444Z,96832.28
2022-08-17T21:50:57.212Z,96841.38
2022-08-17T21:53:39.009Z,96842.56
2022-08-17T21:56:06.962Z,96836.41
2022-08-17T21:58:40.263Z,96831.88
2022-08-17T22:01:12.990Z,96836.16
2022-08-17T22:03:48.233Z,96830.66
2022-08-17T22:06:20.920Z,96828.97
2022-08-17T22:09:13.808Z,96813.63
2022-08-17T22:12:04.734Z,96809.84
2022-08-17T22:14:52.506Z,96809.38
2022-08-17T22:17:25.178Z,96797.31
2022-08-17T22:19:58.123Z,96796.47
2022-08-17T22:22:28.885Z,96789.47
2022-08-17T22:25:01.594Z,96780.47
2022-08-17T22:27:55.456Z,96780.94
2022-08-17T22:30:30.252Z,96780.84
2022-08-17T22:32:58.691Z,96778.09
2022-08-17T22:35:25.195Z,96782.16
2022-08-17T22:37:52.071Z,96783.31
2022-08-17T22:40:31.050Z,96777.53
2022-08-17T22:43:00.698Z,96773.66
2022-08-17T22:45:30.414Z,96783.50
2022-08-17T22:48:02.111Z,96772.50
2022-08-17T22:50:31.629Z,96786.06
2022-08-17T22:53:22.686Z,96780.47
2022-08-17T22:56:14.476Z,96780.72
2022-08-17T22:59:10.493Z,96776.75
2022-08-17T23:01:41.610Z,96778.66
2022-08-17T23:04:30.159Z,96773.75
2022-08-17T23:06:56.795Z,96773.66
2022-08-17T23:09:25.841Z,96771.56
2022-08-17T23:11:59.634Z,96772.13
2022-08-17T23:14:31.644Z,96781.78
2022-08-17T23:17:04.516Z,96776.41
2022-08-17T23:19:33.561Z,96780.19
2022-08-17T23:22:04.212Z,96778.94
2022-08-17T23:24:35.609Z,96776.59
2022-08-17T23:27:07.375Z,96782.16
2022-08-17T23:29:39.365Z,96783.38
2022-08-17T23:32:11.036Z,96781.78
2022-08-17T23:34:43.991Z,96773.56
2022-08-17T23:37:14.300Z,96772.97
2022-08-17T23:39:40.979Z,96764.25
2022-08-17T23:42:15.354Z,96763.41
2022-08-17T23:44:44.842Z,96751.50
2022-08-17T23:47:11.491Z,96754.25
2022-08-17T23:49:41.377Z,96753.84
2022-08-17T23:52:12.527Z,96748.09
2022-08-17T23:54:48.277Z,96743.25
2022-08-17T23:57:19.190Z,96750.25
2022-08-17T23:59:48.836Z,96740.03
